Bassett, Kansas
Current Conditions -  °F | °C
As of 10:52 AM on Thursday 30 Oct 2014 (Local Time) from KCNU Reporting Station
Clear Clear  
Wind Chill: 62°   Ceiling: Unl
Heat Index: 62°   Visibility: 10mi
Dew Point: 42°   Wind: 13mph
Humidity: 48%   Direction: 300°WNW
Pressure: 30.06"   Gusts: NA
Location:  37.9552°N, 95.4332°W
Report Text: KCNU 301552Z AUTO 30011KT 10SM CLR 17/06 A3006 RMK AO2 SLP176 T01670056
Loading
Personal Weather Stations






























Interactive Weather Map
Tropical Storm Tracking
New forecast layout! Learn more

10-Day Weather Forecast

Advertisements
Track Severe Weather on mobile